Flight Track Log - Related Links

Times and Time Zones

All times are in EDT time to prevent confusion due to time zone crossing. See the SWA2202 flight status page for this flight to view local times or setup timezone preferences in your user account.

Time Position Orientation Groundspeed Altitude Reporting Facility
EDT Latitude Longitude Course Direction KTS MPH feet Rate Location/Type
Sat 04:35:20 PM 36.2000 -86.6500 15° North 215 247 4,600  Level Nashville TRACON
Sat 04:36:32 PM 36.2833 -86.6167 18° North 281 323 8,800 3,138 Climbing Nashville TRACON
Sat 04:37:30 PM 36.3594 -86.5767 23° Northeast 301 346 11,400 2,949 Climbing Memphis Center
Sat 04:38:30 PM 36.4500 -86.5361 20° North 324 373 14,600 3,150 Climbing Memphis Center
Sat 04:39:30 PM 36.5444 -86.4903 21° North 343 395 17,700 2,800 Climbing Memphis Center
Sat 04:40:30 PM 36.6428 -86.4417 22° Northeast 366 421 20,200 2,471 Climbing Memphis Center
Sat 04:41:29 PM 36.7372 -86.3931 22° Northeast 390 449 22,600 2,319 Climbing Memphis Center
Sat 04:42:29 PM 36.8461 -86.3411 21° North 401 461 24,800 2,200 Climbing Memphis Center
Sat 04:43:29 PM 36.9586 -86.2836 22° Northeast 425 489 27,000 1,709 Climbing Memphis Center
Sat 04:45:21 PM 37.1736 -86.1747 22° Northeast 456 525 29,700 1,803 Climbing Indianapolis Center
Sat 04:46:22 PM 37.2900 -86.1122 23° Northeast 453 521 32,200 1,610 Climbing Indianapolis Center
Sat 04:47:24 PM 37.4203 -86.0247 28° Northeast 452 520 33,000 390 Climbing Indianapolis Center
Sat 04:48:25 PM 37.5325 -85.9514 27° Northeast 451 519 33,000  Level Indianapolis Center
Sat 04:49:26 PM 37.6519 -85.8936 21° North 441 507 33,000  Level Indianapolis Center
Sat 04:50:28 PM 37.7683 -85.8975 358° North 414 476 33,000  Level Indianapolis Center
Sat 04:51:29 PM 37.8869 -85.9039 358° North 424 488 33,000  Level Indianapolis Center
Sat 04:52:31 PM 38.0042 -85.9103 358° North 423 487 33,000  Level Indianapolis Center
Sat 04:53:32 PM 38.1219 -85.9167 358° North 423 487 33,000  Level Indianapolis Center
Sat 04:54:33 PM 38.2403 -85.9233 357° North 424 488 33,000  Level Indianapolis Center
Sat 04:55:35 PM 38.3564 -85.9292 358° North 419 482 33,000  Level Indianapolis Center
Sat 04:56:36 PM 38.4728 -85.9361 357° North 418 481 33,000  Level Indianapolis Center
Sat 04:57:38 PM 38.5900 -85.9444 357° North 420 483 33,000  Level Indianapolis Center
Sat 04:58:39 PM 38.7056 -85.9497 358° North 417 480 33,000  Level Indianapolis Center
Sat 04:59:41 PM 38.8444 -85.9583 357° North 417 480 33,000 -195 Level Indianapolis Center
Sat 05:00:42 PM 38.9622 -85.9653 357° North 421 484 32,600 -689 Descending Indianapolis Center
Sat 05:01:43 PM 39.0800 -85.9706 358° North 421 484 31,600 -927 Descending Indianapolis Center
Sat 05:02:45 PM 39.1992 -85.9789 357° North 427 491 30,700 -878 Descending Indianapolis Center
Sat 05:03:46 PM 39.3156 -85.9858 357° North 420 483 29,800 -927 Descending Indianapolis Center
Sat 05:04:48 PM 39.4322 -85.9925 357° North 419 482 28,800 -976 Descending Indianapolis Center
Sat 05:05:49 PM 39.5469 -85.9981 358° North 414 476 27,800 -976 Descending Indianapolis Center
Sat 05:06:51 PM 39.6611 -86.0061 357° North 411 473 26,800 -1,024 Descending Indianapolis Center
Sat 05:07:52 PM 39.7731 -86.0122 358° North 404 465 25,700 -1,024 Descending Indianapolis Center
Sat 05:08:54 PM 39.8811 -86.0192 357° North 393 452 24,700 -829 Descending Indianapolis Center
Sat 05:09:55 PM 40.0103 -86.0269 357° North 386 444 24,000 -344 Descending Indianapolis Center
Sat 05:10:56 PM 40.1139 -86.0331 357° North 377 434 24,000 -360 Level Indianapolis Center
Sat 05:11:35 PM 40.1675 -86.0361 358° North 378 435 23,400 -594 Descending Chicago Center
Sat 05:12:37 PM 40.2642 -86.0647 347° North 358 412 23,000 -195 Descending Chicago Center
Sat 05:13:38 PM 40.3742 -86.1178 340° North 351 404 23,000  Level Chicago Center
Sat 05:14:40 PM 40.4678 -86.1592 341° North 356 410 23,000 -732 Level Chicago Center
Sat 05:15:41 PM 40.5597 -86.2019 341° North 352 405 21,500 -1,659 Descending Chicago Center
Sat 05:16:43 PM 40.6472 -86.2433 340° North 333 383 19,600 -1,839 Descending Chicago Center
Sat 05:17:45 PM 40.7319 -86.2839 340° North 325 374 17,700 -1,887 Descending Chicago Center
Sat 05:18:47 PM 40.8169 -86.3231 341° North 324 373 15,700 -1,951 Descending Chicago Center
Sat 05:19:48 PM 40.8989 -86.3617 340° North 314 361 13,700 -1,902 Descending Chicago Center
Sat 05:20:50 PM 40.9778 -86.3997 340° North 303 349 11,800 -1,306 Descending Chicago Center
Sat 05:21:52 PM 41.0569 -86.4533 333° Northwest 279 321 11,000 -390 Descending Chicago Center
Sat 05:22:53 PM 41.0953 -86.5475 298° West 289 333 11,000 -488 Level Chicago Center
Sat 05:23:55 PM 41.1436 -86.6308 308° West 287 330 10,000 -488 Descending Chicago Center
Sat 05:24:56 PM 41.1983 -86.7072 314° West 287 330 10,000  Level Chicago Center
Sat 05:25:58 PM 41.2542 -86.7844 314° West 286 329 10,000  Level Chicago Center
Sat 05:26:59 PM 41.3072 -86.8625 312° West 286 329 10,000 -341 Level Chicago Center
Sat 05:28:01 PM 41.3594 -86.9344 314° West 278 320 9,300 -1,161 Descending Chicago Center
Sat 05:29:03 PM 41.4158 -87.0172 312° West 258 297 7,600 -1,610 Descending Chicago Center
Sat 05:30:04 PM 41.4647 -87.0853 314° West 256 295 6,000 -962 Descending Chicago Center
Sat 05:30:49 PM 41.5000 -87.1500 306° West 249 287 5,900 -629 Descending Chicago TRACON
Sat 05:31:49 PM 41.5000 -87.2333 270° West 248 285 4,900 -950 Descending Chicago TRACON
Sat 05:32:49 PM 41.5167 -87.3167 285° West 245 282 4,000 -500 Descending Chicago TRACON
Sat 05:33:49 PM 41.5167 -87.4167 270° West 247 284 3,900 -73 Descending Chicago TRACON
Sat 05:34:11 PM 41.5225 -87.4328 296° West 247 284 3,900  Level Chicago Center
Sat 05:35:12 PM 41.5297 -87.5231 276° West 247 284 3,900  Level Chicago Center
Sat 05:36:14 PM 41.5564 -87.6219 290° West 253 291 3,900  Level Chicago Center
Sat 05:37:15 PM 41.6039 -87.6892 313° West 253 291 3,900 63 Level Chicago Center
Sat 05:37:50 PM 41.6333 -87.7333 312° West 247 284 4,000 -253 Climbing Chicago TRACON
Sat 05:38:50 PM 41.6833 -87.7833 323° Northwest 222 255 3,500 -750 Descending Chicago TRACON
Sat 05:39:50 PM 41.7167 -87.8333 312° West 187 215 2,500 -950 Descending Chicago TRACON
Sat 05:40:50 PM 41.7500 -87.8000 37° Northeast 130 150 1,600 -800 Descending Chicago TRACON
Sat 05:41:50 PM 41.7667 -87.7667 56° Northeast 125 144 900 -700 Descending Chicago TRACON

Login

Don't have an account? Register now (free) for customized features, flight alerts, and more!